Terminal Aerodrome Forecast
Issued by NWS Cleveland, OH

Home | Current Version | Previous Version | Graphics & Text | Print | Product List | Glossary On
Versions: 1 2 3 4 5 6 7 8 9 10 11 12 13 14 15
000
FTUS41 KCLE 151700
TAFTOL
TAF
KTOL 151731Z 1518/1618 31012G20KT P6SM OVC035
     FM160000 31011KT P6SM BKN045
     FM160300 24003KT P6SM SKC
     FM161500 17008KT P6SM SKC=

USA.gov is the U.S. government's official web portal to all federal, state and local government web resources and services.